Terminal Aerodrome Forecast
Issued by NWS

Home | Current Version | Previous Version | Text Only | Print | Product List | Glossary On
Versions: 1 2 3 4 5 6 7 8 9 10 11 12 13
000
FTUS43 KUNR 312320
TAFGCC
TAF
KGCC 312320Z 0100/0124 14006KT P6SM SCT100
     FM010700 23006KT P6SM BKN100
     FM011600 33010KT P6SM SKC=

USA.gov is the U.S. government's official web portal to all federal, state and local government web resources and services.